sensor_id;sensor_type;location;lat;lon;timestamp;P1;durP1;ratioP1;P2;durP2;ratioP2
19306;SDS011;9788;48.194;16.318;2023-12-20T00:01:33;57.60;;;33.93;;
19306;SDS011;9788;48.194;16.318;2023-12-20T00:04:02;59.07;;;33.43;;
19306;SDS011;9788;48.194;16.318;2023-12-20T00:06:31;60.63;;;33.83;;
19306;SDS011;9788;48.194;16.318;2023-12-20T00:08:59;59.13;;;32.63;;
19306;SDS011;9788;48.194;16.318;2023-12-20T00:11:32;63.13;;;34.17;;
19306;SDS011;9788;48.194;16.318;2023-12-20T00:14:02;59.50;;;33.40;;
19306;SDS011;9788;48.194;16.318;2023-12-20T00:16:30;62.80;;;34.43;;
19306;SDS011;9788;48.194;16.318;2023-12-20T00:18:59;65.30;;;34.67;;
19306;SDS011;9788;48.194;16.318;2023-12-20T00:21:28;64.30;;;34.97;;
19306;SDS011;9788;48.194;16.318;2023-12-20T00:23:57;66.17;;;36.33;;
19306;SDS011;9788;48.194;16.318;2023-12-20T00:26:25;60.60;;;34.67;;
19306;SDS011;9788;48.194;16.318;2023-12-20T00:28:54;58.83;;;33.70;;
19306;SDS011;9788;48.194;16.318;2023-12-20T00:31:24;60.60;;;32.23;;
19306;SDS011;9788;48.194;16.318;2023-12-20T00:33:53;58.00;;;32.33;;
19306;SDS011;9788;48.194;16.318;2023-12-20T00:36:23;59.73;;;34.10;;
19306;SDS011;9788;48.194;16.318;2023-12-20T00:38:52;55.50;;;31.70;;
19306;SDS011;9788;48.194;16.318;2023-12-20T00:41:21;57.00;;;33.07;;
19306;SDS011;9788;48.194;16.318;2023-12-20T00:43:53;61.20;;;32.27;;
19306;SDS011;9788;48.194;16.318;2023-12-20T00:46:21;61.77;;;33.37;;
19306;SDS011;9788;48.194;16.318;2023-12-20T00:48:52;56.97;;;31.23;;
19306;SDS011;9788;48.194;16.318;2023-12-20T00:51:20;62.27;;;33.20;;
19306;SDS011;9788;48.194;16.318;2023-12-20T00:53:49;62.13;;;34.20;;
19306;SDS011;9788;48.194;16.318;2023-12-20T00:56:21;60.50;;;33.97;;
19306;SDS011;9788;48.194;16.318;2023-12-20T00:58:50;59.00;;;32.40;;
19306;SDS011;9788;48.194;16.318;2023-12-20T01:01:18;55.80;;;32.57;;
19306;SDS011;9788;48.194;16.318;2023-12-20T01:03:47;56.47;;;32.50;;
19306;SDS011;9788;48.194;16.318;2023-12-20T01:06:19;57.53;;;32.23;;
19306;SDS011;9788;48.194;16.318;2023-12-20T01:08:47;57.27;;;32.40;;
19306;SDS011;9788;48.194;16.318;2023-12-20T01:11:15;57.23;;;32.30;;
19306;SDS011;9788;48.194;16.318;2023-12-20T01:13:43;59.17;;;32.00;;
19306;SDS011;9788;48.194;16.318;2023-12-20T01:16:12;56.73;;;31.70;;
19306;SDS011;9788;48.194;16.318;2023-12-20T01:18:40;54.23;;;30.87;;
19306;SDS011;9788;48.194;16.318;2023-12-20T01:21:08;54.17;;;30.87;;
19306;SDS011;9788;48.194;16.318;2023-12-20T01:23:38;56.33;;;31.60;;
19306;SDS011;9788;48.194;16.318;2023-12-20T01:26:06;58.60;;;31.33;;
19306;SDS011;9788;48.194;16.318;2023-12-20T01:28:35;59.90;;;31.23;;
19306;SDS011;9788;48.194;16.318;2023-12-20T01:31:03;54.73;;;30.17;;
19306;SDS011;9788;48.194;16.318;2023-12-20T01:33:32;55.40;;;30.17;;
19306;SDS011;9788;48.194;16.318;2023-12-20T01:36:01;58.33;;;31.13;;
19306;SDS011;9788;48.194;16.318;2023-12-20T01:38:30;52.37;;;29.57;;
19306;SDS011;9788;48.194;16.318;2023-12-20T01:41:00;53.40;;;31.13;;
19306;SDS011;9788;48.194;16.318;2023-12-20T01:43:28;55.37;;;31.40;;
19306;SDS011;9788;48.194;16.318;2023-12-20T01:46:09;59.73;;;28.90;;
19306;SDS011;9788;48.194;16.318;2023-12-20T01:48:38;51.33;;;29.70;;
19306;SDS011;9788;48.194;16.318;2023-12-20T01:51:07;51.70;;;28.90;;
19306;SDS011;9788;48.194;16.318;2023-12-20T01:53:38;48.63;;;27.63;;
19306;SDS011;9788;48.194;16.318;2023-12-20T01:56:10;50.90;;;29.67;;
19306;SDS011;9788;48.194;16.318;2023-12-20T01:58:42;48.43;;;27.50;;
19306;SDS011;9788;48.194;16.318;2023-12-20T02:01:12;44.57;;;26.57;;
19306;SDS011;9788;48.194;16.318;2023-12-20T02:03:42;48.67;;;27.40;;
19306;SDS011;9788;48.194;16.318;2023-12-20T02:06:11;47.07;;;27.40;;
19306;SDS011;9788;48.194;16.318;2023-12-20T02:08:39;47.43;;;27.00;;
19306;SDS011;9788;48.194;16.318;2023-12-20T02:11:08;48.63;;;27.10;;
19306;SDS011;9788;48.194;16.318;2023-12-20T02:13:39;49.60;;;27.70;;
19306;SDS011;9788;48.194;16.318;2023-12-20T02:16:07;44.87;;;25.47;;
19306;SDS011;9788;48.194;16.318;2023-12-20T02:18:36;46.70;;;26.77;;
19306;SDS011;9788;48.194;16.318;2023-12-20T02:21:04;45.03;;;25.10;;
19306;SDS011;9788;48.194;16.318;2023-12-20T02:23:34;46.50;;;26.23;;
19306;SDS011;9788;48.194;16.318;2023-12-20T02:26:03;49.37;;;26.50;;
19306;SDS011;9788;48.194;16.318;2023-12-20T02:28:32;46.40;;;25.20;;
19306;SDS011;9788;48.194;16.318;2023-12-20T02:31:02;43.63;;;24.80;;
19306;SDS011;9788;48.194;16.318;2023-12-20T02:33:30;42.20;;;24.77;;
19306;SDS011;9788;48.194;16.318;2023-12-20T02:35:59;42.33;;;24.70;;
19306;SDS011;9788;48.194;16.318;2023-12-20T02:38:29;39.93;;;23.53;;
19306;SDS011;9788;48.194;16.318;2023-12-20T02:40:59;40.50;;;22.00;;
19306;SDS011;9788;48.194;16.318;2023-12-20T02:43:27;37.37;;;21.90;;
19306;SDS011;9788;48.194;16.318;2023-12-20T02:45:55;34.63;;;19.57;;
19306;SDS011;9788;48.194;16.318;2023-12-20T02:48:23;34.67;;;19.80;;
19306;SDS011;9788;48.194;16.318;2023-12-20T02:50:52;37.00;;;21.33;;
19306;SDS011;9788;48.194;16.318;2023-12-20T02:53:20;33.27;;;19.67;;
19306;SDS011;9788;48.194;16.318;2023-12-20T02:55:49;24.97;;;14.20;;
19306;SDS011;9788;48.194;16.318;2023-12-20T02:58:18;15.40;;;9.30;;
19306;SDS011;9788;48.194;16.318;2023-12-20T03:00:47;5.93;;;4.20;;
19306;SDS011;9788;48.194;16.318;2023-12-20T03:03:15;16.87;;;10.27;;
19306;SDS011;9788;48.194;16.318;2023-12-20T03:05:43;18.33;;;11.57;;
19306;SDS011;9788;48.194;16.318;2023-12-20T03:08:14;21.53;;;14.17;;
19306;SDS011;9788;48.194;16.318;2023-12-20T03:10:44;22.57;;;14.30;;
19306;SDS011;9788;48.194;16.318;2023-12-20T03:13:13;24.13;;;15.00;;
19306;SDS011;9788;48.194;16.318;2023-12-20T03:15:42;25.57;;;15.30;;
19306;SDS011;9788;48.194;16.318;2023-12-20T03:18:11;22.87;;;13.87;;
19306;SDS011;9788;48.194;16.318;2023-12-20T03:20:39;25.97;;;16.07;;
19306;SDS011;9788;48.194;16.318;2023-12-20T03:23:08;24.47;;;15.60;;
19306;SDS011;9788;48.194;16.318;2023-12-20T03:25:36;27.10;;;16.40;;
19306;SDS011;9788;48.194;16.318;2023-12-20T03:28:05;25.57;;;16.40;;
19306;SDS011;9788;48.194;16.318;2023-12-20T03:30:34;28.13;;;17.23;;
19306;SDS011;9788;48.194;16.318;2023-12-20T03:33:05;25.73;;;15.93;;
19306;SDS011;9788;48.194;16.318;2023-12-20T03:35:34;26.80;;;15.70;;
19306;SDS011;9788;48.194;16.318;2023-12-20T03:38:03;23.23;;;15.00;;
19306;SDS011;9788;48.194;16.318;2023-12-20T03:40:31;23.00;;;14.50;;
19306;SDS011;9788;48.194;16.318;2023-12-20T03:42:59;25.43;;;14.83;;
19306;SDS011;9788;48.194;16.318;2023-12-20T03:45:28;21.33;;;15.00;;
19306;SDS011;9788;48.194;16.318;2023-12-20T03:47:56;23.77;;;15.00;;
19306;SDS011;9788;48.194;16.318;2023-12-20T03:50:26;22.20;;;14.37;;
19306;SDS011;9788;48.194;16.318;2023-12-20T03:52:55;21.77;;;13.37;;
19306;SDS011;9788;48.194;16.318;2023-12-20T03:55:23;20.20;;;13.23;;
19306;SDS011;9788;48.194;16.318;2023-12-20T03:57:51;21.00;;;13.70;;
19306;SDS011;9788;48.194;16.318;2023-12-20T04:00:20;20.37;;;12.97;;
19306;SDS011;9788;48.194;16.318;2023-12-20T04:02:48;23.33;;;13.77;;
19306;SDS011;9788;48.194;16.318;2023-12-20T04:05:16;20.20;;;13.87;;
19306;SDS011;9788;48.194;16.318;2023-12-20T04:07:46;20.80;;;13.73;;
19306;SDS011;9788;48.194;16.318;2023-12-20T04:10:17;26.87;;;15.57;;
19306;SDS011;9788;48.194;16.318;2023-12-20T04:12:45;22.70;;;14.77;;
19306;SDS011;9788;48.194;16.318;2023-12-20T04:15:14;25.50;;;16.67;;
19306;SDS011;9788;48.194;16.318;2023-12-20T04:17:42;25.27;;;16.70;;
19306;SDS011;9788;48.194;16.318;2023-12-20T04:20:11;28.03;;;17.80;;
19306;SDS011;9788;48.194;16.318;2023-12-20T04:22:40;28.83;;;17.47;;
19306;SDS011;9788;48.194;16.318;2023-12-20T04:25:11;30.13;;;17.97;;
19306;SDS011;9788;48.194;16.318;2023-12-20T04:27:40;32.90;;;17.63;;
19306;SDS011;9788;48.194;16.318;2023-12-20T04:30:09;31.87;;;19.30;;
19306;SDS011;9788;48.194;16.318;2023-12-20T04:32:38;30.43;;;17.87;;
19306;SDS011;9788;48.194;16.318;2023-12-20T04:35:06;30.57;;;17.60;;
19306;SDS011;9788;48.194;16.318;2023-12-20T04:37:35;25.73;;;17.43;;
19306;SDS011;9788;48.194;16.318;2023-12-20T04:40:04;27.23;;;17.47;;
19306;SDS011;9788;48.194;16.318;2023-12-20T04:42:36;25.57;;;17.10;;
19306;SDS011;9788;48.194;16.318;2023-12-20T04:45:04;28.53;;;16.57;;
19306;SDS011;9788;48.194;16.318;2023-12-20T04:47:33;30.40;;;17.53;;
19306;SDS011;9788;48.194;16.318;2023-12-20T04:50:02;28.17;;;17.50;;
19306;SDS011;9788;48.194;16.318;2023-12-20T04:52:31;30.20;;;17.53;;
19306;SDS011;9788;48.194;16.318;2023-12-20T04:54:59;33.40;;;17.93;;
19306;SDS011;9788;48.194;16.318;2023-12-20T04:57:28;26.47;;;17.00;;
19306;SDS011;9788;48.194;16.318;2023-12-20T04:59:57;27.57;;;15.90;;
19306;SDS011;9788;48.194;16.318;2023-12-20T05:02:26;21.53;;;12.33;;
19306;SDS011;9788;48.194;16.318;2023-12-20T05:04:54;16.07;;;9.00;;
19306;SDS011;9788;48.194;16.318;2023-12-20T05:07:22;11.53;;;7.30;;
19306;SDS011;9788;48.194;16.318;2023-12-20T05:09:51;10.17;;;5.10;;
19306;SDS011;9788;48.194;16.318;2023-12-20T05:12:21;8.17;;;4.47;;
19306;SDS011;9788;48.194;16.318;2023-12-20T05:14:52;9.10;;;4.23;;
19306;SDS011;9788;48.194;16.318;2023-12-20T05:17:21;7.97;;;4.57;;
19306;SDS011;9788;48.194;16.318;2023-12-20T05:19:50;7.90;;;4.00;;
19306;SDS011;9788;48.194;16.318;2023-12-20T05:22:19;8.43;;;3.90;;
19306;SDS011;9788;48.194;16.318;2023-12-20T05:24:48;8.47;;;3.87;;
19306;SDS011;9788;48.194;16.318;2023-12-20T05:27:16;6.83;;;4.10;;
19306;SDS011;9788;48.194;16.318;2023-12-20T05:29:44;7.50;;;4.43;;
19306;SDS011;9788;48.194;16.318;2023-12-20T05:32:13;4.97;;;3.57;;
19306;SDS011;9788;48.194;16.318;2023-12-20T05:34:43;5.63;;;3.73;;
19306;SDS011;9788;48.194;16.318;2023-12-20T05:37:12;7.30;;;3.90;;
19306;SDS011;9788;48.194;16.318;2023-12-20T05:39:40;7.97;;;4.10;;
19306;SDS011;9788;48.194;16.318;2023-12-20T05:42:10;6.40;;;4.10;;
19306;SDS011;9788;48.194;16.318;2023-12-20T05:44:38;6.00;;;4.27;;
19306;SDS011;9788;48.194;16.318;2023-12-20T05:47:06;8.80;;;4.10;;
19306;SDS011;9788;48.194;16.318;2023-12-20T05:49:35;12.13;;;6.43;;
19306;SDS011;9788;48.194;16.318;2023-12-20T05:52:05;10.57;;;5.37;;
19306;SDS011;9788;48.194;16.318;2023-12-20T05:54:33;8.60;;;4.50;;
19306;SDS011;9788;48.194;16.318;2023-12-20T05:57:01;6.40;;;4.17;;
19306;SDS011;9788;48.194;16.318;2023-12-20T05:59:30;7.87;;;4.50;;
19306;SDS011;9788;48.194;16.318;2023-12-20T06:01:58;8.47;;;3.83;;
19306;SDS011;9788;48.194;16.318;2023-12-20T06:04:27;6.10;;;4.20;;
19306;SDS011;9788;48.194;16.318;2023-12-20T06:06:58;6.50;;;4.37;;
19306;SDS011;9788;48.194;16.318;2023-12-20T06:09:31;6.10;;;3.93;;
19306;SDS011;9788;48.194;16.318;2023-12-20T06:11:59;7.70;;;3.87;;
19306;SDS011;9788;48.194;16.318;2023-12-20T06:14:27;6.57;;;3.77;;
19306;SDS011;9788;48.194;16.318;2023-12-20T06:16:57;7.27;;;3.53;;
19306;SDS011;9788;48.194;16.318;2023-12-20T06:19:26;7.87;;;3.80;;
19306;SDS011;9788;48.194;16.318;2023-12-20T06:21:57;3.97;;;3.03;;
19306;SDS011;9788;48.194;16.318;2023-12-20T06:24:25;7.87;;;3.73;;
19306;SDS011;9788;48.194;16.318;2023-12-20T06:26:56;6.27;;;3.53;;
19306;SDS011;9788;48.194;16.318;2023-12-20T06:29:25;6.65;;;3.60;;
19306;SDS011;9788;48.194;16.318;2023-12-20T06:31:53;5.83;;;4.10;;
19306;SDS011;9788;48.194;16.318;2023-12-20T06:34:21;6.10;;;3.10;;
19306;SDS011;9788;48.194;16.318;2023-12-20T06:36:50;5.60;;;3.20;;
19306;SDS011;9788;48.194;16.318;2023-12-20T06:39:18;5.40;;;3.20;;
19306;SDS011;9788;48.194;16.318;2023-12-20T06:41:46;4.43;;;3.40;;
19306;SDS011;9788;48.194;16.318;2023-12-20T06:44:19;5.07;;;3.20;;
19306;SDS011;9788;48.194;16.318;2023-12-20T06:46:47;5.30;;;3.13;;
19306;SDS011;9788;48.194;16.318;2023-12-20T06:49:15;5.90;;;3.13;;
19306;SDS011;9788;48.194;16.318;2023-12-20T06:51:45;4.53;;;3.10;;
19306;SDS011;9788;48.194;16.318;2023-12-20T06:54:14;4.83;;;3.70;;
19306;SDS011;9788;48.194;16.318;2023-12-20T06:56:42;19.30;;;3.80;;
19306;SDS011;9788;48.194;16.318;2023-12-20T06:59:10;6.37;;;3.33;;
19306;SDS011;9788;48.194;16.318;2023-12-20T07:01:40;5.03;;;3.20;;
19306;SDS011;9788;48.194;16.318;2023-12-20T07:04:08;6.33;;;3.60;;
19306;SDS011;9788;48.194;16.318;2023-12-20T07:06:37;6.15;;;3.00;;
19306;SDS011;9788;48.194;16.318;2023-12-20T07:09:05;5.28;;;2.90;;
19306;SDS011;9788;48.194;16.318;2023-12-20T07:11:34;8.45;;;3.58;;
19306;SDS011;9788;48.194;16.318;2023-12-20T07:14:02;6.28;;;3.95;;
19306;SDS011;9788;48.194;16.318;2023-12-20T07:16:30;8.23;;;3.65;;
19306;SDS011;9788;48.194;16.318;2023-12-20T07:19:09;6.63;;;3.20;;
19306;SDS011;9788;48.194;16.318;2023-12-20T07:21:37;5.78;;;3.28;;
19306;SDS011;9788;48.194;16.318;2023-12-20T07:24:06;6.75;;;3.42;;
19306;SDS011;9788;48.194;16.318;2023-12-20T07:26:35;7.97;;;3.80;;
19306;SDS011;9788;48.194;16.318;2023-12-20T07:29:04;7.75;;;4.00;;
19306;SDS011;9788;48.194;16.318;2023-12-20T07:31:33;5.40;;;3.88;;
19306;SDS011;9788;48.194;16.318;2023-12-20T07:34:01;5.68;;;4.32;;
19306;SDS011;9788;48.194;16.318;2023-12-20T07:36:31;6.95;;;3.55;;
19306;SDS011;9788;48.194;16.318;2023-12-20T07:39:00;5.20;;;3.80;;
19306;SDS011;9788;48.194;16.318;2023-12-20T07:41:29;5.35;;;3.60;;
19306;SDS011;9788;48.194;16.318;2023-12-20T07:43:57;6.47;;;3.73;;
19306;SDS011;9788;48.194;16.318;2023-12-20T07:46:26;5.43;;;3.50;;
19306;SDS011;9788;48.194;16.318;2023-12-20T07:48:54;8.27;;;3.90;;
19306;SDS011;9788;48.194;16.318;2023-12-20T07:51:23;5.33;;;3.90;;
19306;SDS011;9788;48.194;16.318;2023-12-20T07:53:53;6.13;;;4.07;;
19306;SDS011;9788;48.194;16.318;2023-12-20T07:56:21;7.07;;;3.93;;
19306;SDS011;9788;48.194;16.318;2023-12-20T07:58:49;5.30;;;3.90;;
19306;SDS011;9788;48.194;16.318;2023-12-20T08:01:24;7.47;;;4.20;;
19306;SDS011;9788;48.194;16.318;2023-12-20T08:03:52;6.13;;;4.20;;
19306;SDS011;9788;48.194;16.318;2023-12-20T08:06:21;10.37;;;4.60;;
19306;SDS011;9788;48.194;16.318;2023-12-20T08:08:50;9.13;;;4.77;;
19306;SDS011;9788;48.194;16.318;2023-12-20T08:11:31;6.50;;;4.17;;
19306;SDS011;9788;48.194;16.318;2023-12-20T08:13:59;9.40;;;4.20;;
19306;SDS011;9788;48.194;16.318;2023-12-20T08:16:28;4.63;;;3.80;;
19306;SDS011;9788;48.194;16.318;2023-12-20T08:18:56;6.77;;;4.50;;
19306;SDS011;9788;48.194;16.318;2023-12-20T08:21:24;7.93;;;4.83;;
19306;SDS011;9788;48.194;16.318;2023-12-20T08:23:53;6.23;;;4.10;;
19306;SDS011;9788;48.194;16.318;2023-12-20T08:26:21;5.90;;;4.20;;
19306;SDS011;9788;48.194;16.318;2023-12-20T08:28:52;6.90;;;4.30;;
19306;SDS011;9788;48.194;16.318;2023-12-20T08:31:22;6.13;;;4.30;;
19306;SDS011;9788;48.194;16.318;2023-12-20T08:33:50;7.30;;;4.40;;
19306;SDS011;9788;48.194;16.318;2023-12-20T08:36:22;6.63;;;4.40;;
19306;SDS011;9788;48.194;16.318;2023-12-20T08:38:51;6.73;;;4.37;;
19306;SDS011;9788;48.194;16.318;2023-12-20T08:41:21;6.83;;;4.60;;
19306;SDS011;9788;48.194;16.318;2023-12-20T08:43:49;5.43;;;4.10;;
19306;SDS011;9788;48.194;16.318;2023-12-20T08:46:19;9.00;;;4.00;;
19306;SDS011;9788;48.194;16.318;2023-12-20T08:48:47;6.32;;;4.65;;
19306;SDS011;9788;48.194;16.318;2023-12-20T08:51:16;5.13;;;3.97;;
19306;SDS011;9788;48.194;16.318;2023-12-20T08:53:45;9.10;;;4.80;;
19306;SDS011;9788;48.194;16.318;2023-12-20T08:56:19;7.27;;;4.43;;
19306;SDS011;9788;48.194;16.318;2023-12-20T08:58:48;6.60;;;4.00;;
19306;SDS011;9788;48.194;16.318;2023-12-20T09:01:19;6.73;;;4.40;;
19306;SDS011;9788;48.194;16.318;2023-12-20T09:03:48;6.37;;;4.20;;
19306;SDS011;9788;48.194;16.318;2023-12-20T09:06:16;5.97;;;3.83;;
19306;SDS011;9788;48.194;16.318;2023-12-20T09:08:44;7.30;;;4.30;;
19306;SDS011;9788;48.194;16.318;2023-12-20T09:11:14;6.87;;;4.17;;
19306;SDS011;9788;48.194;16.318;2023-12-20T09:13:44;6.50;;;3.83;;
19306;SDS011;9788;48.194;16.318;2023-12-20T09:16:14;6.33;;;4.00;;
19306;SDS011;9788;48.194;16.318;2023-12-20T09:18:42;5.87;;;3.93;;
19306;SDS011;9788;48.194;16.318;2023-12-20T09:21:10;4.57;;;3.40;;
19306;SDS011;9788;48.194;16.318;2023-12-20T09:23:39;3.80;;;3.10;;
19306;SDS011;9788;48.194;16.318;2023-12-20T09:26:07;4.93;;;3.07;;
19306;SDS011;9788;48.194;16.318;2023-12-20T09:28:36;3.23;;;2.30;;
19306;SDS011;9788;48.194;16.318;2023-12-20T09:31:05;2.73;;;2.43;;
19306;SDS011;9788;48.194;16.318;2023-12-20T09:33:35;3.70;;;2.70;;
19306;SDS011;9788;48.194;16.318;2023-12-20T09:36:04;2.90;;;2.60;;
19306;SDS011;9788;48.194;16.318;2023-12-20T09:38:33;3.70;;;2.60;;
19306;SDS011;9788;48.194;16.318;2023-12-20T09:41:01;3.60;;;2.97;;
19306;SDS011;9788;48.194;16.318;2023-12-20T09:43:31;3.43;;;2.60;;
19306;SDS011;9788;48.194;16.318;2023-12-20T09:46:04;2.63;;;2.10;;
19306;SDS011;9788;48.194;16.318;2023-12-20T09:48:36;2.47;;;2.27;;
19306;SDS011;9788;48.194;16.318;2023-12-20T09:51:04;3.30;;;2.93;;
19306;SDS011;9788;48.194;16.318;2023-12-20T09:53:33;4.07;;;2.67;;
19306;SDS011;9788;48.194;16.318;2023-12-20T09:56:04;3.07;;;2.40;;
19306;SDS011;9788;48.194;16.318;2023-12-20T09:58:36;3.03;;;2.10;;
19306;SDS011;9788;48.194;16.318;2023-12-20T10:01:06;3.27;;;2.70;;
19306;SDS011;9788;48.194;16.318;2023-12-20T10:03:36;3.90;;;2.83;;
19306;SDS011;9788;48.194;16.318;2023-12-20T10:06:08;4.57;;;3.13;;
19306;SDS011;9788;48.194;16.318;2023-12-20T10:08:38;3.50;;;3.10;;
19306;SDS011;9788;48.194;16.318;2023-12-20T10:11:07;3.87;;;3.10;;
19306;SDS011;9788;48.194;16.318;2023-12-20T10:13:39;7.43;;;5.10;;
19306;SDS011;9788;48.194;16.318;2023-12-20T10:16:07;4.50;;;3.13;;
19306;SDS011;9788;48.194;16.318;2023-12-20T10:18:37;5.97;;;3.53;;
19306;SDS011;9788;48.194;16.318;2023-12-20T10:21:05;5.07;;;4.07;;
19306;SDS011;9788;48.194;16.318;2023-12-20T10:23:37;5.43;;;3.70;;
19306;SDS011;9788;48.194;16.318;2023-12-20T10:26:06;3.53;;;3.23;;
19306;SDS011;9788;48.194;16.318;2023-12-20T10:28:36;7.13;;;4.17;;
19306;SDS011;9788;48.194;16.318;2023-12-20T10:31:04;3.70;;;3.37;;
19306;SDS011;9788;48.194;16.318;2023-12-20T10:33:32;3.70;;;3.30;;
19306;SDS011;9788;48.194;16.318;2023-12-20T10:36:03;5.00;;;3.30;;
19306;SDS011;9788;48.194;16.318;2023-12-20T10:38:32;6.03;;;4.10;;
19306;SDS011;9788;48.194;16.318;2023-12-20T10:41:02;3.57;;;2.97;;
19306;SDS011;9788;48.194;16.318;2023-12-20T10:43:33;5.50;;;3.73;;
19306;SDS011;9788;48.194;16.318;2023-12-20T10:46:03;4.40;;;3.07;;
19306;SDS011;9788;48.194;16.318;2023-12-20T10:48:33;3.53;;;2.80;;
19306;SDS011;9788;48.194;16.318;2023-12-20T10:51:05;3.10;;;2.73;;
19306;SDS011;9788;48.194;16.318;2023-12-20T10:53:34;3.33;;;3.03;;
19306;SDS011;9788;48.194;16.318;2023-12-20T10:56:04;4.93;;;3.73;;
19306;SDS011;9788;48.194;16.318;2023-12-20T10:58:33;5.23;;;2.87;;
19306;SDS011;9788;48.194;16.318;2023-12-20T11:01:04;3.83;;;3.30;;
19306;SDS011;9788;48.194;16.318;2023-12-20T11:03:34;3.10;;;2.80;;
19306;SDS011;9788;48.194;16.318;2023-12-20T11:06:07;4.80;;;2.70;;
19306;SDS011;9788;48.194;16.318;2023-12-20T11:08:43;4.40;;;2.90;;
19306;SDS011;9788;48.194;16.318;2023-12-20T11:11:18;3.37;;;3.07;;
19306;SDS011;9788;48.194;16.318;2023-12-20T11:13:54;3.53;;;2.80;;
19306;SDS011;9788;48.194;16.318;2023-12-20T11:16:25;3.10;;;2.80;;
19306;SDS011;9788;48.194;16.318;2023-12-20T11:19:07;3.93;;;2.73;;
19306;SDS011;9788;48.194;16.318;2023-12-20T11:21:37;7.03;;;4.17;;
19306;SDS011;9788;48.194;16.318;2023-12-20T11:24:10;4.80;;;3.13;;
19306;SDS011;9788;48.194;16.318;2023-12-20T11:26:38;2.60;;;2.30;;
19306;SDS011;9788;48.194;16.318;2023-12-20T11:29:30;3.23;;;2.57;;
19306;SDS011;9788;48.194;16.318;2023-12-20T11:32:00;2.97;;;2.63;;
19306;SDS011;9788;48.194;16.318;2023-12-20T11:34:31;2.67;;;2.47;;
19306;SDS011;9788;48.194;16.318;2023-12-20T11:37:05;2.43;;;2.23;;
19306;SDS011;9788;48.194;16.318;2023-12-20T11:39:35;8.37;;;4.17;;
19306;SDS011;9788;48.194;16.318;2023-12-20T11:42:04;3.07;;;2.13;;
19306;SDS011;9788;48.194;16.318;2023-12-20T11:44:34;3.33;;;2.40;;
19306;SDS011;9788;48.194;16.318;2023-12-20T11:47:04;2.90;;;2.50;;
19306;SDS011;9788;48.194;16.318;2023-12-20T11:49:32;2.17;;;1.97;;
19306;SDS011;9788;48.194;16.318;2023-12-20T11:52:03;2.50;;;2.10;;
19306;SDS011;9788;48.194;16.318;2023-12-20T11:54:33;2.47;;;2.10;;
19306;SDS011;9788;48.194;16.318;2023-12-20T11:57:03;2.60;;;2.40;;
19306;SDS011;9788;48.194;16.318;2023-12-20T11:59:32;3.33;;;2.10;;
19306;SDS011;9788;48.194;16.318;2023-12-20T12:02:01;2.33;;;2.10;;
19306;SDS011;9788;48.194;16.318;2023-12-20T12:04:29;3.37;;;2.30;;
19306;SDS011;9788;48.194;16.318;2023-12-20T12:06:58;2.27;;;2.07;;
19306;SDS011;9788;48.194;16.318;2023-12-20T12:09:28;2.63;;;1.90;;
19306;SDS011;9788;48.194;16.318;2023-12-20T12:11:56;2.03;;;1.83;;
19306;SDS011;9788;48.194;16.318;2023-12-20T12:14:26;3.20;;;2.20;;
19306;SDS011;9788;48.194;16.318;2023-12-20T12:16:54;2.47;;;1.70;;
19306;SDS011;9788;48.194;16.318;2023-12-20T12:19:23;3.10;;;1.97;;
19306;SDS011;9788;48.194;16.318;2023-12-20T12:22:03;3.38;;;2.40;;
19306;SDS011;9788;48.194;16.318;2023-12-20T12:24:35;2.30;;;1.90;;
19306;SDS011;9788;48.194;16.318;2023-12-20T12:27:07;3.97;;;2.20;;
19306;SDS011;9788;48.194;16.318;2023-12-20T12:29:36;38.60;;;7.70;;
19306;SDS011;9788;48.194;16.318;2023-12-20T12:32:05;2.80;;;2.10;;
19306;SDS011;9788;48.194;16.318;2023-12-20T12:34:35;3.28;;;1.58;;
19306;SDS011;9788;48.194;16.318;2023-12-20T12:37:04;3.33;;;1.73;;
19306;SDS011;9788;48.194;16.318;2023-12-20T12:39:32;2.78;;;2.55;;
19306;SDS011;9788;48.194;16.318;2023-12-20T12:42:03;3.03;;;2.45;;
19306;SDS011;9788;48.194;16.318;2023-12-20T12:44:31;2.03;;;1.70;;
19306;SDS011;9788;48.194;16.318;2023-12-20T12:47:03;2.03;;;1.75;;
19306;SDS011;9788;48.194;16.318;2023-12-20T12:49:32;2.50;;;1.70;;
19306;SDS011;9788;48.194;16.318;2023-12-20T12:52:00;3.00;;;2.50;;
19306;SDS011;9788;48.194;16.318;2023-12-20T12:54:31;3.00;;;2.13;;
19306;SDS011;9788;48.194;16.318;2023-12-20T12:57:05;3.73;;;2.60;;
19306;SDS011;9788;48.194;16.318;2023-12-20T12:59:39;2.72;;;1.80;;
19306;SDS011;9788;48.194;16.318;2023-12-20T13:02:07;4.00;;;2.20;;
19306;SDS011;9788;48.194;16.318;2023-12-20T13:04:36;1.83;;;1.67;;
19306;SDS011;9788;48.194;16.318;2023-12-20T13:07:04;4.37;;;2.60;;
19306;SDS011;9788;48.194;16.318;2023-12-20T13:09:33;2.57;;;2.10;;
19306;SDS011;9788;48.194;16.318;2023-12-20T13:12:01;2.80;;;2.20;;
19306;SDS011;9788;48.194;16.318;2023-12-20T13:14:32;2.33;;;2.00;;
19306;SDS011;9788;48.194;16.318;2023-12-20T13:17:03;4.40;;;2.13;;
19306;SDS011;9788;48.194;16.318;2023-12-20T13:19:32;2.93;;;2.10;;
19306;SDS011;9788;48.194;16.318;2023-12-20T13:22:01;4.00;;;2.30;;
19306;SDS011;9788;48.194;16.318;2023-12-20T13:24:30;3.27;;;2.70;;
19306;SDS011;9788;48.194;16.318;2023-12-20T13:26:58;4.03;;;2.30;;
19306;SDS011;9788;48.194;16.318;2023-12-20T13:29:27;3.77;;;2.03;;
19306;SDS011;9788;48.194;16.318;2023-12-20T13:31:56;3.40;;;2.20;;
19306;SDS011;9788;48.194;16.318;2023-12-20T13:34:25;3.90;;;2.60;;
19306;SDS011;9788;48.194;16.318;2023-12-20T13:36:53;3.37;;;2.13;;
19306;SDS011;9788;48.194;16.318;2023-12-20T13:39:23;2.53;;;2.27;;
19306;SDS011;9788;48.194;16.318;2023-12-20T13:41:51;2.27;;;2.00;;
19306;SDS011;9788;48.194;16.318;2023-12-20T13:44:24;5.80;;;2.57;;
19306;SDS011;9788;48.194;16.318;2023-12-20T13:46:52;4.87;;;2.50;;
19306;SDS011;9788;48.194;16.318;2023-12-20T13:49:22;4.17;;;2.57;;
19306;SDS011;9788;48.194;16.318;2023-12-20T13:51:52;3.47;;;2.20;;
19306;SDS011;9788;48.194;16.318;2023-12-20T13:54:24;3.15;;;2.08;;
19306;SDS011;9788;48.194;16.318;2023-12-20T13:56:53;3.45;;;2.50;;
19306;SDS011;9788;48.194;16.318;2023-12-20T13:59:37;2.60;;;1.80;;
19306;SDS011;9788;48.194;16.318;2023-12-20T14:02:07;2.43;;;2.07;;
19306;SDS011;9788;48.194;16.318;2023-12-20T14:04:36;2.23;;;2.03;;
19306;SDS011;9788;48.194;16.318;2023-12-20T14:07:09;2.30;;;2.10;;
19306;SDS011;9788;48.194;16.318;2023-12-20T14:09:40;2.80;;;2.30;;
19306;SDS011;9788;48.194;16.318;2023-12-20T14:12:18;5.87;;;2.10;;
19306;SDS011;9788;48.194;16.318;2023-12-20T14:14:47;3.77;;;2.00;;
19306;SDS011;9788;48.194;16.318;2023-12-20T14:17:19;2.20;;;2.00;;
19306;SDS011;9788;48.194;16.318;2023-12-20T14:19:49;2.60;;;1.67;;
19306;SDS011;9788;48.194;16.318;2023-12-20T14:22:18;7.03;;;2.03;;
19306;SDS011;9788;48.194;16.318;2023-12-20T14:24:46;3.27;;;2.13;;
19306;SDS011;9788;48.194;16.318;2023-12-20T14:27:15;2.20;;;1.90;;
19306;SDS011;9788;48.194;16.318;2023-12-20T14:29:46;2.07;;;1.80;;
19306;SDS011;9788;48.194;16.318;2023-12-20T14:32:17;6.07;;;3.07;;
19306;SDS011;9788;48.194;16.318;2023-12-20T14:34:49;4.23;;;2.77;;
19306;SDS011;9788;48.194;16.318;2023-12-20T14:37:27;2.23;;;1.90;;
19306;SDS011;9788;48.194;16.318;2023-12-20T14:40:01;1.90;;;1.80;;
19306;SDS011;9788;48.194;16.318;2023-12-20T14:42:43;2.13;;;1.93;;
19306;SDS011;9788;48.194;16.318;2023-12-20T14:45:16;5.10;;;2.10;;
19306;SDS011;9788;48.194;16.318;2023-12-20T14:47:47;1.90;;;1.80;;
19306;SDS011;9788;48.194;16.318;2023-12-20T14:50:18;2.03;;;1.83;;
19306;SDS011;9788;48.194;16.318;2023-12-20T14:52:49;1.90;;;1.80;;